createdAt,value
2022-10-13T00:00:35.572Z,7.03
2022-10-13T00:01:35.503Z,7.03
2022-10-13T00:02:35.507Z,7.06
2022-10-13T00:03:35.485Z,7.08
2022-10-13T00:04:35.459Z,7.08
2022-10-13T00:05:35.457Z,7.11
2022-10-13T00:06:35.445Z,7.15
2022-10-13T00:07:35.435Z,7.18
2022-10-13T00:08:35.437Z,7.21
2022-10-13T00:09:35.411Z,7.25
2022-10-13T00:10:35.396Z,7.29
2022-10-13T00:11:35.405Z,7.33
2022-10-13T00:12:35.380Z,7.37
2022-10-13T00:13:35.394Z,7.40
2022-10-13T00:14:35.357Z,7.44
2022-10-13T00:15:35.348Z,7.50
2022-10-13T00:16:35.340Z,7.55
2022-10-13T00:17:35.325Z,7.60
2022-10-13T00:18:35.341Z,7.69
2022-10-13T00:19:35.312Z,7.76
2022-10-13T00:20:35.294Z,7.81
2022-10-13T00:21:35.280Z,7.84
2022-10-13T00:22:35.268Z,7.88
2022-10-13T00:23:35.289Z,7.88
2022-10-13T00:24:35.263Z,7.92
2022-10-13T00:25:35.246Z,7.92
2022-10-13T00:26:35.229Z,8.01
2022-10-13T00:27:35.227Z,8.06
2022-10-13T00:28:35.273Z,8.12
2022-10-13T00:29:35.225Z,8.12
2022-10-13T00:30:35.181Z,8.17
2022-10-13T00:31:35.186Z,8.20
2022-10-13T00:32:35.164Z,8.21
2022-10-13T00:33:35.162Z,8.23
2022-10-13T00:34:35.154Z,8.24
2022-10-13T00:35:35.140Z,8.29
2022-10-13T00:36:35.140Z,8.31
2022-10-13T00:37:35.150Z,8.32
2022-10-13T00:38:35.092Z,8.32
2022-10-13T00:39:35.097Z,8.35
2022-10-13T00:40:35.077Z,8.34
2022-10-13T00:41:35.074Z,8.39
2022-10-13T00:42:35.062Z,8.44
2022-10-13T00:43:35.068Z,8.47
2022-10-13T00:44:35.043Z,8.46
2022-10-13T00:45:35.031Z,8.46
2022-10-13T00:46:35.005Z,8.46
2022-10-13T00:47:35.017Z,8.47
2022-10-13T00:48:35.005Z,8.49
2022-10-13T00:49:34.990Z,8.47
2022-10-13T00:50:34.960Z,8.44
2022-10-13T00:51:34.969Z,8.46
2022-10-13T00:52:34.959Z,8.47
2022-10-13T00:53:34.964Z,8.46
2022-10-13T00:54:34.942Z,8.47
2022-10-13T00:55:34.939Z,8.49
2022-10-13T00:56:34.904Z,8.47
2022-10-13T00:57:34.911Z,8.55
2022-10-13T00:58:34.890Z,8.55
2022-10-13T00:59:34.908Z,8.56
2022-10-13T01:00:34.921Z,8.55
2022-10-13T01:01:34.861Z,8.53
2022-10-13T01:02:34.836Z,8.55
2022-10-13T01:03:34.867Z,8.53
2022-10-13T01:04:34.842Z,8.56
2022-10-13T01:05:34.814Z,8.57
2022-10-13T01:06:34.798Z,8.56
2022-10-13T01:07:34.798Z,8.55
2022-10-13T01:08:34.778Z,8.57
2022-10-13T01:09:34.789Z,8.57
2022-10-13T01:10:34.770Z,8.57
2022-10-13T01:11:34.760Z,8.67
2022-10-13T01:12:34.735Z,8.71
2022-10-13T01:13:34.729Z,8.77
2022-10-13T01:14:34.716Z,8.77
2022-10-13T01:15:34.746Z,8.74
2022-10-13T01:16:34.693Z,8.71
2022-10-13T01:17:34.694Z,8.70
2022-10-13T01:18:34.682Z,8.68
2022-10-13T01:19:34.676Z,8.65
2022-10-13T01:20:34.647Z,8.68
2022-10-13T01:21:34.647Z,8.65
2022-10-13T01:22:34.620Z,8.65
2022-10-13T01:23:34.653Z,8.65
2022-10-13T01:24:34.607Z,8.65
2022-10-13T01:25:34.598Z,8.62
2022-10-13T01:26:34.588Z,8.65
2022-10-13T01:27:34.591Z,8.63
2022-10-13T01:28:34.627Z,8.65
2022-10-13T01:29:34.566Z,8.62
2022-10-13T01:30:34.538Z,8.67
2022-10-13T01:31:34.543Z,8.71
2022-10-13T01:32:34.521Z,8.77
2022-10-13T01:33:34.544Z,8.77
2022-10-13T01:34:34.496Z,8.77
2022-10-13T01:35:34.565Z,8.83
2022-10-13T01:36:34.478Z,8.85
2022-10-13T01:37:34.477Z,8.85
2022-10-13T01:38:34.469Z,8.85
2022-10-13T01:39:34.480Z,8.88
2022-10-13T01:40:34.439Z,8.90
2022-10-13T01:41:34.437Z,8.88
2022-10-13T01:42:34.426Z,8.92
2022-10-13T01:43:34.422Z,8.89
2022-10-13T01:44:34.411Z,8.90
2022-10-13T01:45:34.386Z,8.90
2022-10-13T01:46:34.373Z,8.90
2022-10-13T01:47:34.379Z,8.93
2022-10-13T01:48:34.372Z,8.96
2022-10-13T01:49:34.354Z,8.96
2022-10-13T01:50:34.348Z,9.01
2022-10-13T01:51:34.326Z,9.04
2022-10-13T01:52:34.322Z,9.08
2022-10-13T01:53:34.299Z,9.08
2022-10-13T01:54:34.324Z,9.12
2022-10-13T01:55:34.291Z,9.14
2022-10-13T01:56:34.263Z,9.14
2022-10-13T01:57:34.259Z,9.14
2022-10-13T01:58:34.248Z,9.14
2022-10-13T01:59:34.318Z,9.12
2022-10-13T02:00:34.288Z,9.11
2022-10-13T02:01:34.222Z,9.09
2022-10-13T02:02:34.203Z,9.11
2022-10-13T02:03:34.205Z,9.12
2022-10-13T02:04:34.181Z,9.11
2022-10-13T02:05:34.206Z,9.09
2022-10-13T02:06:34.214Z,9.11
2022-10-13T02:07:34.158Z,9.11
2022-10-13T02:08:34.147Z,9.15
2022-10-13T02:09:34.151Z,9.14
2022-10-13T02:10:34.133Z,9.22
2022-10-13T02:11:34.121Z,9.23
2022-10-13T02:12:34.096Z,9.27
2022-10-13T02:13:34.092Z,9.30
2022-10-13T02:14:34.075Z,9.32
2022-10-13T02:15:34.106Z,9.41
2022-10-13T02:16:34.067Z,9.47
2022-10-13T02:17:34.045Z,9.47
2022-10-13T02:18:34.034Z,9.48
2022-10-13T02:19:34.038Z,9.48
2022-10-13T02:20:34.014Z,9.50
2022-10-13T02:21:34.032Z,9.51
2022-10-13T02:22:33.997Z,9.52
2022-10-13T02:23:33.991Z,9.54
2022-10-13T02:24:33.966Z,9.57
2022-10-13T02:25:33.961Z,9.62
2022-10-13T02:26:33.953Z,9.65
2022-10-13T02:27:33.959Z,9.66
2022-10-13T02:28:33.980Z,9.66
2022-10-13T02:29:33.917Z,9.67
2022-10-13T02:30:33.922Z,9.67
2022-10-13T02:31:33.913Z,9.70
2022-10-13T02:32:33.910Z,9.67
2022-10-13T02:33:33.871Z,9.67
2022-10-13T02:34:33.867Z,9.67
2022-10-13T02:35:33.855Z,9.69
2022-10-13T02:36:33.866Z,9.67
2022-10-13T02:37:33.846Z,9.67
2022-10-13T02:38:33.831Z,9.67
2022-10-13T02:39:34.533Z,9.66
2022-10-13T02:40:33.811Z,9.66
2022-10-13T02:41:33.785Z,9.66
2022-10-13T02:42:33.795Z,9.69
2022-10-13T02:43:33.786Z,9.69
2022-10-13T02:44:33.769Z,9.69
2022-10-13T02:45:33.746Z,9.67
2022-10-13T02:46:33.747Z,9.67
2022-10-13T02:47:33.743Z,9.69
2022-10-13T02:48:33.717Z,9.67
2022-10-13T02:49:33.698Z,9.67
2022-10-13T02:50:33.702Z,9.69
2022-10-13T02:51:38.977Z,9.69
2022-10-13T02:52:34.074Z,9.69
2022-10-13T02:53:33.660Z,9.69
2022-10-13T02:54:33.663Z,9.70
2022-10-13T02:55:33.638Z,9.72
2022-10-13T02:56:33.639Z,9.72
2022-10-13T02:57:33.613Z,9.77
2022-10-13T02:58:33.616Z,9.75
2022-10-13T02:59:33.598Z,9.73
2022-10-13T03:00:33.631Z,9.77
2022-10-13T03:01:33.574Z,9.75
2022-10-13T03:02:33.581Z,9.73
2022-10-13T03:03:33.668Z,9.75
2022-10-13T03:04:33.557Z,9.72
2022-10-13T03:05:33.524Z,9.70
2022-10-13T03:06:33.521Z,9.72
2022-10-13T03:07:33.529Z,9.72
2022-10-13T03:08:33.529Z,9.72
2022-10-13T03:09:33.505Z,9.70
2022-10-13T03:10:33.480Z,9.72
2022-10-13T03:11:33.459Z,9.72
2022-10-13T03:12:33.463Z,9.75
2022-10-13T03:13:33.443Z,9.77
2022-10-13T03:14:33.455Z,9.78
2022-10-13T03:15:33.429Z,9.78
2022-10-13T03:16:33.443Z,9.78
2022-10-13T03:17:33.413Z,9.78
2022-10-13T03:18:33.413Z,9.80
2022-10-13T03:19:33.397Z,9.81
2022-10-13T03:20:33.382Z,9.83
2022-10-13T03:21:33.355Z,9.85
2022-10-13T03:22:33.349Z,9.85
2022-10-13T03:23:33.365Z,9.88
2022-10-13T03:24:33.330Z,9.93
2022-10-13T03:25:33.324Z,9.91
2022-10-13T03:26:33.319Z,9.93
2022-10-13T03:27:33.294Z,9.93
2022-10-13T03:28:33.362Z,9.91
2022-10-13T03:29:33.280Z,9.93
2022-10-13T03:30:33.280Z,9.96
2022-10-13T03:31:33.256Z,9.98
2022-10-13T03:32:33.254Z,9.99
2022-10-13T03:33:33.227Z,9.96
2022-10-13T03:34:33.236Z,9.98
2022-10-13T03:35:33.238Z,9.96
2022-10-13T03:36:33.204Z,9.99
2022-10-13T03:37:33.190Z,9.98
2022-10-13T03:38:33.190Z,9.98
2022-10-13T03:39:33.169Z,9.96
2022-10-13T03:40:33.187Z,9.94
2022-10-13T03:41:33.153Z,9.96
2022-10-13T03:42:33.141Z,9.96
2022-10-13T03:43:33.124Z,9.94
2022-10-13T03:44:33.135Z,9.98
2022-10-13T03:45:33.122Z,9.98
2022-10-13T03:46:33.112Z,9.99
2022-10-13T03:47:33.078Z,9.98
2022-10-13T03:48:33.080Z,9.98
2022-10-13T03:49:33.066Z,9.99
2022-10-13T03:50:33.068Z,9.98
2022-10-13T03:51:33.040Z,9.96
2022-10-13T03:52:33.040Z,9.98
2022-10-13T03:53:33.014Z,9.94
2022-10-13T03:54:33.015Z,9.94
2022-10-13T03:55:33.014Z,9.93
2022-10-13T03:56:33.001Z,9.91
2022-10-13T03:57:32.973Z,9.91
2022-10-13T03:58:34.248Z,9.90
2022-10-13T03:59:36.604Z,9.93
2022-10-13T04:00:32.950Z,9.94
2022-10-13T04:01:32.993Z,9.96
2022-10-13T04:02:32.931Z,9.94
2022-10-13T04:03:32.907Z,9.93
2022-10-13T04:04:32.915Z,9.93
2022-10-13T04:05:32.887Z,9.88
2022-10-13T04:06:32.898Z,9.85
2022-10-13T04:07:32.872Z,9.85
2022-10-13T04:08:32.859Z,9.83
2022-10-13T04:09:32.864Z,9.83
2022-10-13T04:10:32.848Z,9.84
2022-10-13T04:11:32.843Z,9.85
2022-10-13T04:12:32.828Z,9.88
2022-10-13T04:13:32.811Z,9.90
2022-10-13T04:14:32.807Z,9.96
2022-10-13T04:15:32.794Z,9.96
2022-10-13T04:16:32.792Z,10.01
2022-10-13T04:17:32.780Z,10.01
2022-10-13T04:18:32.759Z,10.01
2022-10-13T04:19:32.751Z,10.01
2022-10-13T04:20:32.740Z,10.01
2022-10-13T04:21:32.722Z,10.01
2022-10-13T04:22:32.726Z,9.99
2022-10-13T04:23:32.696Z,10.01
2022-10-13T04:24:32.698Z,10.01
2022-10-13T04:25:32.676Z,10.01
2022-10-13T04:26:32.672Z,10.01
2022-10-13T04:27:32.666Z,10.02
2022-10-13T04:28:32.725Z,9.98
2022-10-13T04:29:32.635Z,9.98
2022-10-13T04:30:32.618Z,9.98
2022-10-13T04:31:32.624Z,9.98
2022-10-13T04:32:32.638Z,9.99
2022-10-13T04:33:32.594Z,10.02
2022-10-13T04:34:32.582Z,10.03
2022-10-13T04:35:32.568Z,10.02
2022-10-13T04:36:32.564Z,10.03
2022-10-13T04:37:32.566Z,10.03
2022-10-13T04:38:32.563Z,10.05
2022-10-13T04:39:32.538Z,10.06
2022-10-13T04:40:32.524Z,10.08
2022-10-13T04:41:32.499Z,10.06
2022-10-13T04:42:32.495Z,10.08
2022-10-13T04:43:32.502Z,10.08
2022-10-13T04:44:32.474Z,10.08
2022-10-13T04:45:32.450Z,10.06
2022-10-13T04:46:33.150Z,10.06
2022-10-13T04:47:36.907Z,10.09
2022-10-13T04:48:32.492Z,10.09
2022-10-13T04:49:32.422Z,10.09
2022-10-13T04:50:32.417Z,10.08
2022-10-13T04:51:32.402Z,10.09
2022-10-13T04:52:32.394Z,10.08
2022-10-13T04:53:32.396Z,10.06
2022-10-13T04:54:32.384Z,10.05
2022-10-13T04:55:32.350Z,10.05
2022-10-13T04:56:32.353Z,10.05
2022-10-13T04:57:32.326Z,10.05
2022-10-13T04:58:32.334Z,10.05
2022-10-13T04:59:32.320Z,10.05
2022-10-13T05:00:32.345Z,10.06
2022-10-13T05:01:32.295Z,10.06
2022-10-13T05:02:32.303Z,10.06
2022-10-13T05:03:32.277Z,10.06
2022-10-13T05:04:32.288Z,10.06
2022-10-13T05:05:32.240Z,10.05
2022-10-13T05:06:32.235Z,10.09
2022-10-13T05:07:32.225Z,10.08
2022-10-13T05:08:32.228Z,10.08
2022-10-13T05:09:32.220Z,10.06
2022-10-13T05:10:34.755Z,10.06
2022-10-13T05:11:32.178Z,10.08
2022-10-13T05:12:32.183Z,10.06
2022-10-13T05:13:32.310Z,10.09
2022-10-13T05:14:32.163Z,10.09
2022-10-13T05:15:32.144Z,10.12
2022-10-13T05:16:32.133Z,10.17
2022-10-13T05:17:35.307Z,10.18
2022-10-13T05:18:32.127Z,10.23
2022-10-13T05:19:32.106Z,10.21
2022-10-13T05:20:32.095Z,10.21
2022-10-13T05:21:32.070Z,10.23
2022-10-13T05:22:32.145Z,10.20
2022-10-13T05:23:32.059Z,10.18
2022-10-13T05:24:32.083Z,10.17
2022-10-13T05:25:33.996Z,10.17
2022-10-13T05:26:31.983Z,10.16
2022-10-13T05:27:31.954Z,10.14
2022-10-13T05:28:31.996Z,10.14
2022-10-13T05:29:31.942Z,10.10
2022-10-13T05:30:31.925Z,10.16
2022-10-13T05:31:31.981Z,10.17
2022-10-13T05:32:31.968Z,10.21
2022-10-13T05:33:31.951Z,10.23
2022-10-13T05:34:31.975Z,10.24
2022-10-13T05:35:31.878Z,10.24
2022-10-13T05:36:31.874Z,10.24
2022-10-13T05:37:31.838Z,10.24
2022-10-13T05:38:31.850Z,10.27
2022-10-13T05:39:31.827Z,10.26
2022-10-13T05:40:31.847Z,10.24
2022-10-13T05:41:31.803Z,10.23
2022-10-13T05:42:31.798Z,10.23
2022-10-13T05:43:31.784Z,10.18
2022-10-13T05:44:31.777Z,10.17
2022-10-13T05:45:31.793Z,10.16
2022-10-13T05:46:31.755Z,10.14
2022-10-13T05:47:31.753Z,10.14
2022-10-13T05:48:31.737Z,10.14
2022-10-13T05:49:31.713Z,10.14
2022-10-13T05:50:31.708Z,10.16
2022-10-13T05:51:31.722Z,10.16
2022-10-13T05:52:31.715Z,10.17
2022-10-13T05:53:31.677Z,10.16
2022-10-13T05:54:31.672Z,10.21
2022-10-13T05:55:31.658Z,10.23
2022-10-13T05:56:31.654Z,10.27
2022-10-13T05:57:31.658Z,10.28
2022-10-13T05:58:31.622Z,10.28
2022-10-13T05:59:31.613Z,10.27
2022-10-13T06:00:31.615Z,10.28
2022-10-13T06:01:31.643Z,10.31
2022-10-13T06:02:31.584Z,10.31
2022-10-13T06:03:31.578Z,10.31
2022-10-13T06:04:31.576Z,10.36
2022-10-13T06:05:31.537Z,10.38
2022-10-13T06:06:31.856Z,10.38
2022-10-13T06:07:31.539Z,10.39
2022-10-13T06:08:31.691Z,10.39
2022-10-13T06:09:31.499Z,10.39
2022-10-13T06:10:31.500Z,10.39
2022-10-13T06:11:31.489Z,10.39
2022-10-13T06:12:31.501Z,10.39
2022-10-13T06:13:31.446Z,10.38
2022-10-13T06:14:31.455Z,10.38
2022-10-13T06:15:31.455Z,10.36
2022-10-13T06:16:31.454Z,10.36
2022-10-13T06:17:31.414Z,10.35
2022-10-13T06:18:31.420Z,10.34
2022-10-13T06:19:31.412Z,10.30
2022-10-13T06:20:31.413Z,10.28
2022-10-13T06:21:31.371Z,10.34
2022-10-13T06:22:31.362Z,10.31
2022-10-13T06:23:31.370Z,10.31
2022-10-13T06:24:31.353Z,10.31
2022-10-13T06:25:31.361Z,10.28
2022-10-13T06:26:31.342Z,10.30
2022-10-13T06:27:31.320Z,10.35
2022-10-13T06:28:31.341Z,10.36
2022-10-13T06:29:31.380Z,10.41
2022-10-13T06:30:31.280Z,10.43
2022-10-13T06:31:31.306Z,10.45
2022-10-13T06:32:31.264Z,10.49
2022-10-13T06:33:31.247Z,10.55
2022-10-13T06:34:31.238Z,10.58
2022-10-13T06:35:31.259Z,10.58
2022-10-13T06:36:31.224Z,10.61
2022-10-13T06:37:31.206Z,10.62
2022-10-13T06:38:31.198Z,10.62
2022-10-13T06:39:31.183Z,10.61
2022-10-13T06:40:31.178Z,10.61
2022-10-13T06:41:31.174Z,10.62
2022-10-13T06:42:31.146Z,10.65
2022-10-13T06:43:38.922Z,10.67
2022-10-13T06:44:31.141Z,10.68
2022-10-13T06:45:31.147Z,10.70
2022-10-13T06:46:31.142Z,10.73
2022-10-13T06:47:31.103Z,10.76
2022-10-13T06:48:31.085Z,10.75
2022-10-13T06:49:31.078Z,10.78
2022-10-13T06:50:31.094Z,10.78
2022-10-13T06:51:31.059Z,10.78
2022-10-13T06:52:31.063Z,10.79
2022-10-13T06:53:31.045Z,10.79
2022-10-13T06:54:31.142Z,10.80
2022-10-13T06:55:31.030Z,10.80
2022-10-13T06:56:31.009Z,10.79
2022-10-13T06:57:30.997Z,10.79
2022-10-13T06:58:30.971Z,10.78
2022-10-13T06:59:30.979Z,10.79
2022-10-13T07:00:31.035Z,10.80
2022-10-13T07:01:30.953Z,10.80
2022-10-13T07:02:30.948Z,10.83
2022-10-13T07:03:30.930Z,10.83
2022-10-13T07:04:30.913Z,10.86
2022-10-13T07:05:30.905Z,10.86
2022-10-13T07:06:30.945Z,10.86
2022-10-13T07:07:30.886Z,10.90
2022-10-13T07:08:30.874Z,10.87
2022-10-13T07:09:30.866Z,10.87
2022-10-13T07:10:30.843Z,10.87
2022-10-13T07:11:30.830Z,10.83
2022-10-13T07:12:30.931Z,10.83
2022-10-13T07:13:33.570Z,10.83
2022-10-13T07:14:30.803Z,10.80
2022-10-13T07:15:30.801Z,10.79
2022-10-13T07:16:30.779Z,10.78
2022-10-13T07:17:30.778Z,10.78
2022-10-13T07:18:30.776Z,10.76
2022-10-13T07:19:30.760Z,10.76
2022-10-13T07:20:30.738Z,10.79
2022-10-13T07:21:30.739Z,10.78
2022-10-13T07:22:30.716Z,10.79
2022-10-13T07:23:30.717Z,10.79
2022-10-13T07:24:30.727Z,10.83
2022-10-13T07:25:30.700Z,10.86
2022-10-13T07:26:30.675Z,10.93
2022-10-13T07:27:30.661Z,10.97
2022-10-13T07:28:30.679Z,11.04
2022-10-13T07:29:30.651Z,11.13
2022-10-13T07:30:30.641Z,11.19
2022-10-13T07:31:30.646Z,11.25
2022-10-13T07:32:30.604Z,11.33
2022-10-13T07:33:30.612Z,11.38
2022-10-13T07:34:30.596Z,11.48
2022-10-13T07:35:31.084Z,11.55
2022-10-13T07:36:30.624Z,11.61
2022-10-13T07:37:30.556Z,11.62
2022-10-13T07:38:30.560Z,11.70
2022-10-13T07:39:30.546Z,11.76
2022-10-13T07:40:30.524Z,11.82
2022-10-13T07:41:30.521Z,11.87
2022-10-13T07:42:30.538Z,11.89
2022-10-13T07:43:30.488Z,11.91
2022-10-13T07:44:30.753Z,11.95
2022-10-13T07:45:30.472Z,11.99
2022-10-13T07:46:30.473Z,12.05
2022-10-13T07:47:30.451Z,12.04
2022-10-13T07:48:30.452Z,12.07
2022-10-13T07:49:30.429Z,12.10
2022-10-13T07:50:30.413Z,12.08
2022-10-13T07:51:30.430Z,12.10
2022-10-13T07:52:30.400Z,12.11
2022-10-13T07:53:30.394Z,12.08
2022-10-13T07:54:30.385Z,12.08
2022-10-13T07:55:30.357Z,12.05
2022-10-13T07:56:30.349Z,12.04
2022-10-13T07:57:30.351Z,12.04
2022-10-13T07:58:30.325Z,12.03
2022-10-13T07:59:30.337Z,11.99
2022-10-13T08:00:30.302Z,11.97
2022-10-13T08:01:30.325Z,11.95
2022-10-13T08:02:30.312Z,11.96
2022-10-13T08:03:30.340Z,11.93
2022-10-13T08:04:30.289Z,11.93
2022-10-13T08:05:30.256Z,11.96
2022-10-13T08:06:30.364Z,11.93
2022-10-13T08:07:30.241Z,11.96
2022-10-13T08:08:30.207Z,11.95
2022-10-13T08:09:30.222Z,11.95
2022-10-13T08:10:30.213Z,11.97
2022-10-13T08:11:30.184Z,11.97
2022-10-13T08:12:30.178Z,11.99
2022-10-13T08:13:30.181Z,12.00
2022-10-13T08:14:30.345Z,12.03
2022-10-13T08:15:30.209Z,12.04
2022-10-13T08:16:30.128Z,12.05
2022-10-13T08:17:30.133Z,12.04
2022-10-13T08:18:30.115Z,12.04
2022-10-13T08:19:30.114Z,12.04
2022-10-13T08:20:40.893Z,12.05
2022-10-13T08:22:30.092Z,12.07
2022-10-13T08:23:30.084Z,12.10
2022-10-13T08:24:30.039Z,12.13
2022-10-13T08:25:30.081Z,12.13
2022-10-13T08:26:30.041Z,12.15
2022-10-13T08:27:49.652Z,12.15
2022-10-13T08:28:30.112Z,12.15
2022-10-13T08:29:30.068Z,12.15
2022-10-13T08:30:30.129Z,12.17
2022-10-13T08:31:30.406Z,12.18
2022-10-13T08:32:30.009Z,12.18
2022-10-13T08:33:29.959Z,12.22
2022-10-13T08:34:29.968Z,12.25
2022-10-13T08:35:34.117Z,12.25
2022-10-13T08:36:29.923Z,12.26
2022-10-13T08:37:29.945Z,12.28
2022-10-13T08:38:29.902Z,12.30
2022-10-13T08:39:29.900Z,12.32
2022-10-13T08:40:29.869Z,12.32
2022-10-13T08:41:29.887Z,12.36
2022-10-13T08:42:29.882Z,12.40
2022-10-13T08:43:29.859Z,12.43
2022-10-13T08:45:41.026Z,12.51
2022-10-13T08:46:29.826Z,12.58
2022-10-13T08:47:29.842Z,12.61
2022-10-13T08:48:29.832Z,12.66
2022-10-13T08:49:29.801Z,12.65
2022-10-13T08:50:29.784Z,12.71
2022-10-13T08:51:29.772Z,12.73
2022-10-13T08:52:29.739Z,12.77
2022-10-13T08:53:29.776Z,12.79
2022-10-13T08:54:29.735Z,12.81
2022-10-13T08:55:29.725Z,12.83
2022-10-13T08:56:29.716Z,12.86
2022-10-13T08:57:29.703Z,12.91
2022-10-13T08:58:29.729Z,12.99
2022-10-13T08:59:29.697Z,13.06
2022-10-13T09:00:29.757Z,13.13
2022-10-13T09:01:29.706Z,13.17
2022-10-13T09:02:29.648Z,13.21
2022-10-13T09:03:29.644Z,13.27
2022-10-13T09:04:29.626Z,13.36
2022-10-13T09:05:29.627Z,13.42
2022-10-13T09:06:29.599Z,13.47
2022-10-13T09:07:29.600Z,13.51
2022-10-13T09:08:29.607Z,13.53
2022-10-13T09:09:29.588Z,13.54
2022-10-13T09:10:29.558Z,13.54
2022-10-13T09:11:29.547Z,13.60
2022-10-13T09:12:29.536Z,13.63
2022-10-13T09:13:29.536Z,13.65
2022-10-13T09:14:29.720Z,13.63
2022-10-13T09:15:29.529Z,13.61
2022-10-13T09:16:29.486Z,13.60
2022-10-13T09:17:29.491Z,13.57
2022-10-13T09:18:29.482Z,13.54
2022-10-13T09:19:29.473Z,13.60
2022-10-13T09:20:29.483Z,13.61
2022-10-13T09:21:29.449Z,13.65
2022-10-13T09:22:29.449Z,13.63
2022-10-13T09:23:29.428Z,13.61
2022-10-13T09:24:29.418Z,13.63
2022-10-13T09:25:29.403Z,13.58
2022-10-13T09:26:29.422Z,13.60
2022-10-13T09:27:29.376Z,13.60
2022-10-13T09:28:29.421Z,13.60
2022-10-13T09:29:29.381Z,13.53
2022-10-13T09:30:29.358Z,13.46
2022-10-13T09:31:29.416Z,13.42
2022-10-13T09:32:29.312Z,13.39
2022-10-13T09:33:29.317Z,13.38
2022-10-13T09:34:29.301Z,13.35
2022-10-13T09:35:29.298Z,13.36
2022-10-13T09:36:29.277Z,13.32
2022-10-13T09:37:29.279Z,13.32
2022-10-13T09:38:29.248Z,13.32
2022-10-13T09:39:29.243Z,13.32
2022-10-13T09:40:29.232Z,13.29
2022-10-13T09:41:29.239Z,13.29
2022-10-13T09:42:29.212Z,13.26
2022-10-13T09:43:29.201Z,13.23
2022-10-13T09:44:29.197Z,13.21
2022-10-13T09:45:29.191Z,13.19
2022-10-13T09:46:29.202Z,13.19
2022-10-13T09:47:29.161Z,13.17
2022-10-13T09:48:29.136Z,13.19
2022-10-13T09:49:29.157Z,13.17
2022-10-13T09:50:29.134Z,13.16
2022-10-13T09:51:29.117Z,13.14
2022-10-13T09:52:29.123Z,13.14
2022-10-13T09:53:29.105Z,13.14
2022-10-13T09:54:29.084Z,13.16
2022-10-13T09:55:32.397Z,13.19
2022-10-13T09:56:29.055Z,13.19
2022-10-13T09:57:29.063Z,13.17
2022-10-13T09:58:29.039Z,13.21
2022-10-13T09:59:29.044Z,13.21
2022-10-13T10:00:29.027Z,13.23
2022-10-13T10:01:29.024Z,13.26
2022-10-13T10:02:29.451Z,13.27
2022-10-13T10:03:29.003Z,13.32
2022-10-13T10:04:29.023Z,13.38
2022-10-13T10:05:28.961Z,13.40
2022-10-13T10:06:28.951Z,13.45
2022-10-13T10:07:29.003Z,13.51
2022-10-13T10:08:33.875Z,13.61
2022-10-13T10:09:28.980Z,13.68
2022-10-13T10:10:28.906Z,13.78
2022-10-13T10:11:28.893Z,13.85
2022-10-13T10:12:28.877Z,13.94
2022-10-13T10:13:28.899Z,14.01
2022-10-13T10:14:28.861Z,14.13
2022-10-13T10:15:28.854Z,14.22
2022-10-13T10:16:28.839Z,14.27
2022-10-13T10:17:28.868Z,14.38
2022-10-13T10:18:28.914Z,14.44
2022-10-13T10:19:28.804Z,14.49
2022-10-13T10:20:28.790Z,14.55
2022-10-13T10:21:28.889Z,14.51
2022-10-13T10:22:28.773Z,14.51
2022-10-13T10:23:28.796Z,14.56
2022-10-13T10:24:28.760Z,14.63
2022-10-13T10:25:28.756Z,14.71
2022-10-13T10:26:32.467Z,14.85
2022-10-13T10:27:28.739Z,14.89
2022-10-13T10:28:28.830Z,14.89
2022-10-13T10:29:28.714Z,14.97
2022-10-13T10:30:28.692Z,14.95
2022-10-13T10:31:28.684Z,14.96
2022-10-13T10:32:28.657Z,15.05
2022-10-13T10:33:28.682Z,15.07
2022-10-13T10:34:28.650Z,15.05
2022-10-13T10:35:28.635Z,15.10
2022-10-13T10:36:28.625Z,15.14
2022-10-13T10:37:28.618Z,15.05
2022-10-13T10:38:28.617Z,15.12
2022-10-13T10:39:28.600Z,15.10
2022-10-13T10:40:28.590Z,15.08
2022-10-13T10:41:28.583Z,15.12
2022-10-13T10:42:28.589Z,15.10
2022-10-13T10:43:28.581Z,15.17
2022-10-13T10:44:28.553Z,15.27
2022-10-13T10:45:28.555Z,15.36
2022-10-13T10:46:28.567Z,15.40
2022-10-13T10:47:28.999Z,15.40
2022-10-13T10:48:28.503Z,15.45
2022-10-13T10:49:28.523Z,15.48
2022-10-13T10:50:28.475Z,15.40
2022-10-13T10:51:28.467Z,15.43
2022-10-13T10:52:28.450Z,15.47
2022-10-13T10:53:28.474Z,15.59
2022-10-13T10:54:28.424Z,15.63
2022-10-13T10:55:28.447Z,15.68
2022-10-13T10:56:28.393Z,15.73
2022-10-13T10:57:28.406Z,15.87
2022-10-13T10:58:28.394Z,15.90
2022-10-13T10:59:28.393Z,16.06
2022-10-13T11:01:28.405Z,16.14
2022-10-13T11:02:28.348Z,16.03
2022-10-13T11:03:28.334Z,16.06
2022-10-13T11:04:28.348Z,16.08
2022-10-13T11:05:28.305Z,16.06
2022-10-13T11:06:28.319Z,16.09
2022-10-13T11:07:28.289Z,16.22
2022-10-13T11:08:28.353Z,16.37
2022-10-13T11:09:28.264Z,16.40
2022-10-13T11:10:28.307Z,16.49
2022-10-13T11:11:31.035Z,16.43
2022-10-13T11:12:28.272Z,16.46
2022-10-13T11:13:28.221Z,16.52
2022-10-13T11:14:28.218Z,16.49
2022-10-13T11:15:28.221Z,16.58
2022-10-13T11:16:28.222Z,16.67
2022-10-13T11:17:28.172Z,16.62
2022-10-13T11:18:28.176Z,16.74
2022-10-13T11:19:28.192Z,16.76
2022-10-13T11:20:28.157Z,16.70
2022-10-13T11:21:28.142Z,16.98
2022-10-13T11:22:28.210Z,17.19
2022-10-13T11:23:28.124Z,17.41
2022-10-13T11:24:28.119Z,17.71
2022-10-13T11:25:28.088Z,17.79
2022-10-13T11:26:28.085Z,17.96
2022-10-13T11:27:28.091Z,17.97
2022-10-13T11:28:28.105Z,17.97
2022-10-13T11:29:28.070Z,17.99
2022-10-13T11:31:32.081Z,17.91
2022-10-13T11:32:28.096Z,17.99
2022-10-13T11:33:28.002Z,18.08
2022-10-13T11:34:28.002Z,18.18
2022-10-13T11:35:28.016Z,18.06
2022-10-13T11:36:27.989Z,18.13
2022-10-13T11:37:27.969Z,18.11
2022-10-13T11:38:27.976Z,18.26
2022-10-13T11:39:28.181Z,18.33
2022-10-13T11:40:27.945Z,18.30
2022-10-13T11:41:27.915Z,18.21
2022-10-13T11:42:27.913Z,18.15
2022-10-13T11:43:27.914Z,18.27
2022-10-13T11:45:27.877Z,18.20
2022-10-13T11:46:27.873Z,18.15
2022-10-13T11:47:27.866Z,18.15
2022-10-13T11:48:27.896Z,18.13
2022-10-13T11:49:27.840Z,18.08
2022-10-13T11:50:27.855Z,18.13
2022-10-13T11:51:27.817Z,18.11
2022-10-13T11:52:27.835Z,17.99
2022-10-13T11:53:27.796Z,17.99
2022-10-13T11:54:27.815Z,18.01
2022-10-13T11:55:27.768Z,17.84
2022-10-13T11:56:27.772Z,17.63
2022-10-13T11:57:27.744Z,17.46
2022-10-13T11:58:27.742Z,17.34
2022-10-13T11:59:27.754Z,17.24
2022-10-13T12:00:27.715Z,17.09
2022-10-13T12:01:27.705Z,17.07
2022-10-13T12:02:27.822Z,16.97
2022-10-13T12:03:27.720Z,16.98
2022-10-13T12:04:27.685Z,17.01
2022-10-13T12:05:27.673Z,16.95
2022-10-13T12:06:27.681Z,16.84
2022-10-13T12:07:27.639Z,16.84
2022-10-13T12:08:27.644Z,16.76
2022-10-13T12:09:27.629Z,16.74
2022-10-13T12:10:27.609Z,16.73
2022-10-13T12:11:27.607Z,16.72
2022-10-13T12:12:27.599Z,16.69
2022-10-13T12:13:27.582Z,16.64
2022-10-13T12:14:27.674Z,16.64
2022-10-13T12:15:27.564Z,16.59
2022-10-13T12:16:27.557Z,16.49
2022-10-13T12:17:27.893Z,16.49
2022-10-13T12:18:27.530Z,16.44
2022-10-13T12:19:27.557Z,16.42
2022-10-13T12:20:27.513Z,16.43
2022-10-13T12:21:27.490Z,16.44
2022-10-13T12:22:27.496Z,16.43
2022-10-13T12:23:27.478Z,16.43
2022-10-13T12:24:27.472Z,16.46
2022-10-13T12:25:27.471Z,16.46
2022-10-13T12:26:27.434Z,16.44
2022-10-13T12:27:27.434Z,16.44
2022-10-13T12:28:27.485Z,16.43
2022-10-13T12:29:27.415Z,16.40
2022-10-13T12:30:27.408Z,16.34
2022-10-13T12:31:27.419Z,16.36
2022-10-13T12:32:27.403Z,16.37
2022-10-13T12:33:27.364Z,16.34
2022-10-13T12:34:27.381Z,16.32
2022-10-13T12:35:27.364Z,16.34
2022-10-13T12:36:29.959Z,16.39
2022-10-13T12:37:27.318Z,16.37
2022-10-13T12:38:27.317Z,16.36
2022-10-13T12:39:27.316Z,16.26
2022-10-13T12:40:27.296Z,16.26
2022-10-13T12:41:27.303Z,16.29
2022-10-13T12:42:27.272Z,16.24
2022-10-13T12:43:27.272Z,16.24
2022-10-13T12:44:27.247Z,16.29
2022-10-13T12:45:27.235Z,16.29
2022-10-13T12:46:27.283Z,16.34
2022-10-13T12:47:27.241Z,16.34
2022-10-13T12:48:27.210Z,16.33
2022-10-13T12:49:27.186Z,16.34
2022-10-13T12:50:27.195Z,16.33
2022-10-13T12:51:27.183Z,16.29
2022-10-13T12:52:27.185Z,16.28
2022-10-13T12:53:27.143Z,16.28
2022-10-13T12:54:27.151Z,16.25
2022-10-13T12:55:27.122Z,16.24
2022-10-13T12:56:27.121Z,16.21
2022-10-13T12:57:27.129Z,16.18
2022-10-13T12:58:27.090Z,16.18
2022-10-13T12:59:27.093Z,16.14
2022-10-13T13:00:27.092Z,16.05
2022-10-13T13:01:27.153Z,15.95
2022-10-13T13:02:27.073Z,15.93
2022-10-13T13:03:27.051Z,15.87
2022-10-13T13:04:27.056Z,15.85
2022-10-13T13:05:27.013Z,15.88
2022-10-13T13:06:27.034Z,15.90